createdAt,value
2022-08-09T00:02:26.901Z,2.30
2022-08-09T00:05:03.466Z,1.77
2022-08-09T00:07:44.416Z,1.80
2022-08-09T00:10:21.542Z,1.73
2022-08-09T00:12:52.330Z,1.75
2022-08-09T00:15:26.475Z,2.13
2022-08-09T00:18:10.748Z,1.75
2022-08-09T00:20:42.503Z,1.83
2022-08-09T00:23:57.465Z,1.85
2022-08-09T00:26:05.848Z,1.70
2022-08-09T00:28:34.698Z,1.88
2022-08-09T00:31:09.236Z,2.17
2022-08-09T00:33:51.473Z,2.10
2022-08-09T00:36:22.545Z,1.73
2022-08-09T00:38:55.955Z,1.70
2022-08-09T00:44:16.635Z,1.75
2022-08-09T00:44:25.030Z,1.90
2022-08-09T00:46:57.266Z,2.20
2022-08-09T00:49:32.761Z,1.80
2022-08-09T00:52:05.214Z,1.90
2022-08-09T00:54:36.313Z,1.63
2022-08-09T00:57:08.891Z,1.80
2022-08-09T00:59:46.276Z,2.20
2022-08-09T01:02:24.452Z,2.00
2022-08-09T01:05:13.923Z,1.98
2022-08-09T01:08:00.447Z,2.03
2022-08-09T01:11:08.673Z,1.80
2022-08-09T01:13:59.941Z,1.90
2022-08-09T01:16:35.157Z,1.92
2022-08-09T01:19:17.002Z,1.88
2022-08-09T01:22:17.285Z,2.30
2022-08-09T01:25:16.177Z,2.00
2022-08-09T01:27:50.658Z,2.13
2022-08-09T01:33:03.339Z,2.00
2022-08-09T01:35:45.197Z,2.00
2022-08-09T01:38:18.496Z,2.60
2022-08-09T01:41:05.088Z,2.20
2022-08-09T01:43:41.834Z,2.20
2022-08-09T01:46:24.891Z,1.95
2022-08-09T01:48:59.839Z,2.05
2022-08-09T01:51:39.190Z,1.83
2022-08-09T01:54:10.253Z,2.00
2022-08-09T01:56:40.664Z,1.98
2022-08-09T01:59:10.937Z,2.00
2022-08-09T02:01:59.718Z,2.40
2022-08-09T02:04:28.494Z,2.28
2022-08-09T02:07:18.576Z,2.08
2022-08-09T02:10:07.341Z,1.88
2022-08-09T02:12:35.432Z,1.73
2022-08-09T02:15:06.173Z,1.70
2022-08-09T02:17:59.983Z,2.55
2022-08-09T02:20:26.760Z,2.00
2022-08-09T02:23:16.914Z,2.10
2022-08-09T02:25:49.600Z,2.13
2022-08-09T02:28:39.113Z,2.38
2022-08-09T02:31:08.883Z,2.42
2022-08-09T02:34:06.350Z,1.95
2022-08-09T02:36:32.571Z,1.88
2022-08-09T02:39:04.802Z,2.03
2022-08-09T02:44:29.164Z,1.73
2022-08-09T02:46:58.130Z,1.98
2022-08-09T02:49:27.175Z,2.00
2022-08-09T02:52:07.853Z,2.08
2022-08-09T02:54:36.825Z,2.00
2022-08-09T02:57:23.644Z,2.08
2022-08-09T03:00:21.624Z,1.90
2022-08-09T03:02:58.130Z,2.28
2022-08-09T03:05:26.577Z,2.05
2022-08-09T03:07:55.210Z,2.33
2022-08-09T03:10:24.071Z,2.20
2022-08-09T03:12:52.099Z,2.05
2022-08-09T03:15:20.801Z,1.70
2022-08-09T03:17:57.966Z,2.10
2022-08-09T03:20:29.622Z,2.50
2022-08-09T03:22:58.425Z,2.03
2022-08-09T03:25:58.397Z,2.10
2022-08-09T03:28:30.945Z,2.35
2022-08-09T03:30:58.850Z,2.30
2022-08-09T03:33:26.698Z,2.03
2022-08-09T03:36:16.813Z,2.13
2022-08-09T03:38:44.654Z,2.40
2022-08-09T03:41:15.050Z,2.40
2022-08-09T03:44:04.019Z,2.25
2022-08-09T03:46:30.357Z,2.00
2022-08-09T03:48:59.767Z,2.35
2022-08-09T03:51:43.625Z,2.75
2022-08-09T03:54:19.387Z,2.10
2022-08-09T03:56:59.308Z,2.20
2022-08-09T03:59:27.423Z,2.70
2022-08-09T04:02:10.340Z,2.40
2022-08-09T04:04:38.802Z,2.40
2022-08-09T04:07:05.836Z,2.35
2022-08-09T04:09:47.693Z,2.30
2022-08-09T04:12:30.842Z,2.38
2022-08-09T04:15:02.042Z,2.13
2022-08-09T04:17:38.242Z,2.30
2022-08-09T04:20:07.215Z,2.30
2022-08-09T04:22:34.529Z,2.30
2022-08-09T04:25:04.670Z,2.33
2022-08-09T04:27:32.691Z,2.63
2022-08-09T04:29:59.594Z,2.25
2022-08-09T04:32:31.586Z,2.35
2022-08-09T04:35:01.110Z,2.70
2022-08-09T04:37:45.846Z,2.67
2022-08-09T04:40:19.283Z,2.70
2022-08-09T04:42:55.734Z,2.43
2022-08-09T04:45:23.555Z,2.60
2022-08-09T04:47:58.767Z,2.80
2022-08-09T04:50:31.967Z,2.88
2022-08-09T04:53:02.052Z,2.88
2022-08-09T04:55:39.054Z,2.58
2022-08-09T04:58:09.563Z,2.83
2022-08-09T05:00:37.127Z,3.13
2022-08-09T05:03:30.141Z,3.00
2022-08-09T05:06:06.767Z,2.63
2022-08-09T05:08:34.952Z,3.10
2022-08-09T05:11:02.345Z,2.42
2022-08-09T05:13:29.254Z,3.08
2022-08-09T05:15:59.953Z,2.97
2022-08-09T05:18:42.926Z,3.10
2022-08-09T05:21:24.328Z,3.15
2022-08-09T05:24:00.384Z,3.50
2022-08-09T05:26:36.020Z,3.00
2022-08-09T05:29:04.166Z,2.58
2022-08-09T05:31:44.364Z,3.15
2022-08-09T05:34:16.646Z,2.58
2022-08-09T05:36:44.260Z,2.92
2022-08-09T05:39:28.194Z,3.35
2022-08-09T05:41:55.952Z,3.08
2022-08-09T05:44:29.074Z,3.17
2022-08-09T05:46:59.895Z,3.00
2022-08-09T05:50:23.872Z,2.67
2022-08-09T05:52:12.927Z,3.08
2022-08-09T05:54:39.875Z,2.78
2022-08-09T05:57:07.704Z,2.72
2022-08-09T05:59:39.446Z,2.35
2022-08-09T06:02:09.143Z,2.47
2022-08-09T06:04:36.717Z,2.63
2022-08-09T06:07:04.182Z,2.78
2022-08-09T06:09:54.590Z,2.38
2022-08-09T06:12:17.200Z,2.60
2022-08-09T06:14:43.665Z,2.40
2022-08-09T06:17:10.194Z,2.55
2022-08-09T06:19:36.929Z,2.80
2022-08-09T06:22:03.685Z,2.65
2022-08-09T06:24:30.122Z,3.00
2022-08-09T06:26:58.086Z,2.47
2022-08-09T06:29:26.839Z,2.47
2022-08-09T06:32:08.715Z,2.80
2022-08-09T06:34:40.443Z,2.10
2022-08-09T06:37:10.024Z,2.63
2022-08-09T06:39:48.181Z,2.65
2022-08-09T06:42:24.929Z,2.38
2022-08-09T06:44:55.378Z,2.25
2022-08-09T06:47:24.324Z,2.78
2022-08-09T06:50:11.455Z,2.58
2022-08-09T06:52:47.050Z,2.20
2022-08-09T06:55:17.008Z,2.97
2022-08-09T06:58:02.755Z,1.83
2022-08-09T07:00:57.091Z,2.40
2022-08-09T07:03:16.427Z,2.20
2022-08-09T07:06:02.350Z,2.53
2022-08-09T07:08:30.673Z,2.25
2022-08-09T07:10:57.204Z,3.10
2022-08-09T07:13:29.558Z,2.20
2022-08-09T07:16:42.430Z,1.98
2022-08-09T07:18:44.087Z,2.40
2022-08-09T07:21:14.220Z,3.00
2022-08-09T07:23:46.597Z,2.83
2022-08-09T07:26:23.305Z,2.75
2022-08-09T07:29:01.371Z,2.35
2022-08-09T07:31:38.417Z,2.00
2022-08-09T07:34:19.306Z,2.15
2022-08-09T07:36:47.816Z,2.25
2022-08-09T07:39:20.101Z,2.00
2022-08-09T07:42:00.802Z,2.13
2022-08-09T07:44:50.831Z,2.53
2022-08-09T07:47:17.857Z,2.38
2022-08-09T07:50:04.485Z,1.90
2022-08-09T07:52:31.227Z,2.58
2022-08-09T07:54:57.896Z,2.22
2022-08-09T07:57:35.674Z,1.70
2022-08-09T08:00:04.543Z,1.98
2022-08-09T08:02:36.039Z,2.03
2022-08-09T08:05:17.908Z,1.50
2022-08-09T08:08:43.864Z,1.65
2022-08-09T08:10:34.467Z,2.03
2022-08-09T08:13:01.567Z,1.98
2022-08-09T08:15:37.699Z,1.83
2022-08-09T08:18:05.821Z,2.08
2022-08-09T08:20:33.497Z,1.75
2022-08-09T08:23:16.128Z,1.65
2022-08-09T08:25:46.429Z,1.85
2022-08-09T08:28:18.268Z,1.90
2022-08-09T08:30:59.077Z,1.67
2022-08-09T08:33:25.596Z,1.90
2022-08-09T08:36:07.641Z,1.75
2022-08-09T08:38:35.013Z,1.63
2022-08-09T08:41:06.203Z,2.00
2022-08-09T08:43:34.916Z,1.60
2022-08-09T08:46:32.642Z,1.60
2022-08-09T08:48:53.973Z,2.00
2022-08-09T08:51:22.965Z,1.65
2022-08-09T08:54:02.964Z,1.77
2022-08-09T08:56:37.641Z,1.33
2022-08-09T08:59:20.172Z,1.50
2022-08-09T09:01:53.455Z,1.55
2022-08-09T09:04:29.783Z,1.60
2022-08-09T09:07:02.755Z,1.50
2022-08-09T09:09:57.792Z,1.40
2022-08-09T09:12:22.731Z,1.00
2022-08-09T09:14:50.154Z,1.80
2022-08-09T09:17:18.701Z,1.65
2022-08-09T09:19:47.589Z,2.50
2022-08-09T09:22:17.560Z,1.60
2022-08-09T09:26:02.450Z,1.60
2022-08-09T09:28:03.542Z,1.30
2022-08-09T09:30:47.433Z,1.40
2022-08-09T09:33:16.379Z,1.30
2022-08-09T09:36:01.744Z,1.20
2022-08-09T09:38:44.628Z,1.33
2022-08-09T09:41:23.379Z,1.58
2022-08-09T09:44:12.055Z,1.70
2022-08-09T09:46:42.864Z,1.85
2022-08-09T09:49:18.549Z,1.50
2022-08-09T09:52:06.817Z,1.10
2022-08-09T09:55:01.006Z,1.30
2022-08-09T09:58:03.080Z,1.33
2022-08-09T10:00:26.440Z,1.20
2022-08-09T10:02:53.509Z,1.20
2022-08-09T10:05:27.070Z,1.40
2022-08-09T10:08:26.012Z,1.23
2022-08-09T10:10:54.063Z,1.13
2022-08-09T10:13:24.738Z,1.33
2022-08-09T10:16:58.313Z,1.08
2022-08-09T10:18:56.818Z,1.27
2022-08-09T10:21:27.628Z,1.17
2022-08-09T10:23:56.996Z,0.98
2022-08-09T10:26:26.798Z,0.80
2022-08-09T10:29:22.647Z,0.98
2022-08-09T10:32:27.909Z,0.80
2022-08-09T10:34:33.925Z,0.80
2022-08-09T10:37:02.444Z,1.02
2022-08-09T10:39:29.945Z,1.00
2022-08-09T10:42:08.480Z,1.23
2022-08-09T10:44:39.826Z,1.10
2022-08-09T10:48:17.211Z,1.02
2022-08-09T10:50:31.109Z,1.17
2022-08-09T10:53:19.164Z,0.80
2022-08-09T10:55:58.235Z,0.90
2022-08-09T10:58:35.035Z,0.80
2022-08-09T11:03:02.816Z,1.00
2022-08-09T11:04:27.755Z,1.30
2022-08-09T11:07:00.319Z,1.00
2022-08-09T11:09:41.372Z,0.97
2022-08-09T11:12:17.486Z,0.90
2022-08-09T11:14:47.270Z,1.00
2022-08-09T11:17:13.844Z,1.58
2022-08-09T11:20:22.092Z,0.82
2022-08-09T11:22:55.365Z,0.90
2022-08-09T11:25:45.177Z,0.80
2022-08-09T11:28:38.917Z,0.90
2022-08-09T11:31:49.830Z,0.90
2022-08-09T11:34:34.927Z,1.02
2022-08-09T11:37:03.685Z,0.95
2022-08-09T11:40:01.051Z,0.98
2022-08-09T11:42:51.496Z,1.00
2022-08-09T11:45:26.356Z,1.00
2022-08-09T11:48:19.301Z,1.08
2022-08-09T11:52:49.501Z,1.40
2022-08-09T11:53:59.727Z,0.93
2022-08-09T11:56:34.316Z,1.20
2022-08-09T11:59:11.937Z,1.15
2022-08-09T12:02:17.103Z,0.98
2022-08-09T12:04:37.546Z,0.77
2022-08-09T12:07:07.756Z,0.90
2022-08-09T12:09:36.041Z,0.82
2022-08-09T12:12:13.136Z,1.10
2022-08-09T12:15:08.356Z,0.70
2022-08-09T12:17:34.627Z,0.88
2022-08-09T12:20:22.149Z,0.90
2022-08-09T12:23:03.215Z,0.95
2022-08-09T12:25:37.363Z,0.90
2022-08-09T12:29:15.304Z,1.10
2022-08-09T12:31:58.143Z,0.90
2022-08-09T12:34:15.697Z,0.82
2022-08-09T12:36:52.793Z,1.05
2022-08-09T12:39:27.055Z,0.90
2022-08-09T12:41:54.638Z,0.90
2022-08-09T12:44:24.555Z,1.35
2022-08-09T12:46:51.454Z,0.80
2022-08-09T12:49:19.010Z,0.80
2022-08-09T12:52:01.084Z,0.90
2022-08-09T12:56:11.061Z,0.80
2022-08-09T12:57:46.455Z,0.80
2022-08-09T13:00:23.442Z,0.77
2022-08-09T13:02:56.070Z,0.80
2022-08-09T13:05:25.276Z,0.90
2022-08-09T13:08:21.311Z,1.10
2022-08-09T13:11:22.699Z,0.95
2022-08-09T13:14:42.653Z,0.70
2022-08-09T13:16:49.479Z,0.80
2022-08-09T13:20:09.378Z,0.70
2022-08-09T13:22:35.666Z,1.00
2022-08-09T13:25:05.151Z,0.90
2022-08-09T13:27:40.063Z,1.00
2022-08-09T13:30:50.372Z,0.70
2022-08-09T13:33:07.010Z,0.80
2022-08-09T13:36:24.640Z,1.00
2022-08-09T13:38:55.805Z,1.00
2022-08-09T13:41:45.905Z,0.85
2022-08-09T13:43:58.186Z,1.13
2022-08-09T13:47:17.987Z,0.82
2022-08-09T13:49:18.359Z,0.80
2022-08-09T13:52:00.562Z,0.90
2022-08-09T13:54:30.376Z,0.90
2022-08-09T13:56:56.916Z,1.00
2022-08-09T13:59:25.420Z,1.10
2022-08-09T14:02:01.672Z,0.85
2022-08-09T14:04:29.391Z,0.73
2022-08-09T14:07:03.513Z,0.90
2022-08-09T14:09:30.585Z,0.98
2022-08-09T14:12:06.193Z,0.70
2022-08-09T14:14:41.894Z,1.00
2022-08-09T14:17:12.571Z,1.23
2022-08-09T14:19:39.184Z,1.20
2022-08-09T14:22:07.276Z,1.13
2022-08-09T14:24:35.697Z,0.93
2022-08-09T14:27:02.389Z,1.00
2022-08-09T14:30:35.287Z,0.80
2022-08-09T14:32:19.705Z,1.10
2022-08-09T14:34:55.925Z,0.90
2022-08-09T14:37:28.556Z,0.88
2022-08-09T14:39:55.341Z,1.20
2022-08-09T14:42:31.781Z,1.27
2022-08-09T14:46:53.993Z,0.95
2022-08-09T14:47:57.937Z,1.02
2022-08-09T14:50:27.937Z,0.90
2022-08-09T14:52:54.579Z,0.80
2022-08-09T14:55:21.441Z,1.00
2022-08-09T14:57:49.354Z,0.90
2022-08-09T15:00:17.061Z,1.10
2022-08-09T15:02:47.573Z,1.27
2022-08-09T15:05:19.597Z,0.90
2022-08-09T15:07:56.345Z,0.90
2022-08-09T15:10:24.757Z,1.00
2022-08-09T15:12:55.755Z,0.90
2022-08-09T15:15:23.554Z,0.95
2022-08-09T15:17:52.887Z,0.98
2022-08-09T15:21:58.255Z,0.82
2022-08-09T15:24:01.275Z,1.10
2022-08-09T15:25:55.629Z,1.13
2022-08-09T15:28:27.306Z,0.82
2022-08-09T15:31:01.839Z,0.98
2022-08-09T15:34:15.436Z,1.00
2022-08-09T15:36:16.633Z,0.88
2022-08-09T15:38:43.079Z,0.98
2022-08-09T15:41:10.273Z,1.05
2022-08-09T15:43:38.972Z,1.25
2022-08-09T15:46:28.256Z,0.90
2022-08-09T15:49:20.431Z,1.08
2022-08-09T15:52:02.164Z,1.00
2022-08-09T15:54:33.438Z,1.05
2022-08-09T15:57:09.398Z,1.30
2022-08-09T15:59:37.113Z,1.00
2022-08-09T16:02:04.073Z,1.00
2022-08-09T16:04:32.104Z,0.70
2022-08-09T16:07:01.700Z,1.02
2022-08-09T16:09:32.499Z,0.98
2022-08-09T16:12:15.726Z,1.20
2022-08-09T16:14:42.721Z,0.82
2022-08-09T16:17:09.432Z,1.00
2022-08-09T16:19:36.880Z,1.02
2022-08-09T16:22:15.727Z,1.27
2022-08-09T16:24:42.480Z,0.90
2022-08-09T16:27:08.910Z,1.15
2022-08-09T16:29:50.707Z,0.88
2022-08-09T16:32:43.296Z,0.82
2022-08-09T16:35:07.275Z,0.95
2022-08-09T16:37:55.765Z,1.33
2022-08-09T16:40:39.931Z,1.02
2022-08-09T16:43:07.355Z,1.73
2022-08-09T16:45:33.816Z,1.10
2022-08-09T16:48:41.798Z,1.13
2022-08-09T16:50:49.923Z,1.10
2022-08-09T16:53:32.177Z,1.17
2022-08-09T16:56:03.647Z,0.90
2022-08-09T16:58:36.109Z,1.05
2022-08-09T17:01:04.593Z,1.20
2022-08-09T17:03:31.383Z,1.27
2022-08-09T17:06:06.911Z,1.05
2022-08-09T17:09:02.932Z,1.10
2022-08-09T17:11:39.946Z,0.85
2022-08-09T17:14:26.165Z,2.00
2022-08-09T17:16:59.454Z,0.93
2022-08-09T17:19:27.044Z,1.10
2022-08-09T17:22:13.373Z,0.93
2022-08-09T17:24:47.517Z,1.25
2022-08-09T17:27:21.249Z,1.35
2022-08-09T17:29:47.695Z,1.02
2022-08-09T17:32:16.430Z,1.50
2022-08-09T17:35:07.639Z,1.25
2022-08-09T17:38:11.896Z,1.42
2022-08-09T17:40:21.627Z,1.10
2022-08-09T17:42:59.316Z,1.23
2022-08-09T17:46:01.774Z,1.00
2022-08-09T17:48:16.933Z,1.00
2022-08-09T17:50:48.748Z,1.25
2022-08-09T17:53:23.312Z,1.15
2022-08-09T17:55:54.102Z,0.95
2022-08-09T17:58:24.272Z,0.88
2022-08-09T18:00:56.264Z,1.30
2022-08-09T18:03:24.417Z,1.17
2022-08-09T18:05:53.060Z,1.38
2022-08-09T18:08:21.796Z,1.30
2022-08-09T18:11:00.912Z,1.05
2022-08-09T18:13:38.791Z,1.02
2022-08-09T18:16:16.973Z,1.10
2022-08-09T18:18:56.768Z,0.90
2022-08-09T18:21:24.413Z,1.13
2022-08-09T18:24:12.681Z,1.00
2022-08-09T18:26:46.649Z,1.10
2022-08-09T18:30:42.269Z,1.83
2022-08-09T18:32:03.633Z,2.30
2022-08-09T18:34:34.864Z,2.85
2022-08-09T18:37:02.970Z,1.88
2022-08-09T18:39:32.088Z,1.20
2022-08-09T18:42:01.115Z,1.35
2022-08-09T18:44:27.791Z,1.30
2022-08-09T18:47:08.048Z,1.10
2022-08-09T18:49:41.479Z,1.35
2022-08-09T18:52:11.687Z,1.30
2022-08-09T18:54:38.964Z,1.33
2022-08-09T18:57:08.772Z,1.23
2022-08-09T18:59:48.463Z,1.00
2022-08-09T19:02:16.992Z,1.17
2022-08-09T19:04:47.913Z,1.10
2022-08-09T19:07:31.567Z,1.20
2022-08-09T19:10:16.920Z,1.05
2022-08-09T19:12:45.655Z,1.00
2022-08-09T19:15:19.839Z,1.33
2022-08-09T19:17:54.833Z,1.02
2022-08-09T19:20:23.286Z,1.00
2022-08-09T19:22:54.275Z,1.15
2022-08-09T19:25:42.425Z,1.00
2022-08-09T19:28:08.874Z,1.00
2022-08-09T19:30:44.594Z,1.10
2022-08-09T19:33:19.060Z,1.15
2022-08-09T19:35:57.138Z,1.40
2022-08-09T19:38:27.152Z,0.98
2022-08-09T19:40:54.179Z,1.02
2022-08-09T19:43:57.903Z,1.00
2022-08-09T19:46:08.625Z,1.23
2022-08-09T19:49:00.443Z,1.27
2022-08-09T19:51:30.641Z,1.20
2022-08-09T19:54:01.225Z,1.23
2022-08-09T19:56:29.427Z,1.00
2022-08-09T19:59:39.548Z,1.35
2022-08-09T20:01:53.079Z,1.10
2022-08-09T20:04:37.331Z,1.10
2022-08-09T20:07:12.400Z,1.33
2022-08-09T20:09:48.862Z,1.20
2022-08-09T20:12:30.186Z,1.10
2022-08-09T20:15:10.318Z,1.30
2022-08-09T20:17:54.604Z,1.10
2022-08-09T20:20:21.502Z,1.20
2022-08-09T20:22:48.665Z,1.13
2022-08-09T20:25:22.551Z,1.20
2022-08-09T20:27:49.436Z,1.52
2022-08-09T20:30:18.081Z,1.30
2022-08-09T20:32:52.262Z,1.50
2022-08-09T20:35:19.742Z,1.30
2022-08-09T20:38:23.902Z,1.20
2022-08-09T20:40:32.793Z,1.20
2022-08-09T20:43:19.012Z,1.23
2022-08-09T20:45:59.383Z,1.20
2022-08-09T20:48:32.764Z,2.05
2022-08-09T20:51:00.974Z,1.52
2022-08-09T20:53:36.480Z,1.38
2022-08-09T20:56:06.445Z,1.40
2022-08-09T20:58:35.706Z,1.40
2022-08-09T21:01:32.521Z,1.20
2022-08-09T21:05:48.407Z,1.10
2022-08-09T21:06:42.591Z,1.60
2022-08-09T21:09:11.621Z,1.40
2022-08-09T21:14:26.832Z,1.42
2022-08-09T21:16:57.748Z,1.17
2022-08-09T21:20:19.264Z,1.40
2022-08-09T21:22:35.970Z,1.70
2022-08-09T21:25:17.712Z,1.48
2022-08-09T21:27:51.043Z,1.65
2022-08-09T21:30:19.274Z,1.60
2022-08-09T21:32:49.347Z,1.77
2022-08-09T21:35:16.551Z,2.20
2022-08-09T21:37:56.936Z,1.75
2022-08-09T21:42:58.752Z,1.70
2022-08-09T21:45:25.774Z,1.40
2022-08-09T21:47:52.805Z,1.50
2022-08-09T21:50:33.881Z,1.60
2022-08-09T21:53:03.945Z,1.75
2022-08-09T21:55:30.882Z,1.50
2022-08-09T21:58:01.938Z,1.38
2022-08-09T22:00:33.574Z,1.50
2022-08-09T22:03:19.173Z,1.45
2022-08-09T22:05:51.800Z,1.20
2022-08-09T22:08:18.746Z,1.30
2022-08-09T22:11:00.539Z,1.00
2022-08-09T22:13:35.991Z,1.42
2022-08-09T22:16:07.571Z,1.35
2022-08-09T22:18:35.946Z,1.50
2022-08-09T22:21:10.001Z,1.25
2022-08-09T22:24:01.309Z,1.50
2022-08-09T22:26:35.341Z,1.30
2022-08-09T22:29:08.859Z,1.35
2022-08-09T22:31:37.371Z,1.87
2022-08-09T22:34:14.566Z,6.60
2022-08-09T22:36:46.254Z,6.53
2022-08-09T22:39:46.814Z,6.43
2022-08-09T22:42:00.726Z,6.63
2022-08-09T22:44:29.963Z,4.47
2022-08-09T22:48:14.554Z,4.45
2022-08-09T22:49:45.997Z,5.32
2022-08-09T22:52:12.501Z,5.35
2022-08-09T22:54:42.181Z,4.90
2022-08-09T22:57:11.920Z,3.30
2022-08-09T22:59:56.251Z,2.80
2022-08-09T23:02:25.102Z,2.28
2022-08-09T23:04:53.701Z,1.90
2022-08-09T23:08:29.308Z,1.88
2022-08-09T23:10:27.014Z,1.25
2022-08-09T23:12:53.502Z,1.40
2022-08-09T23:15:20.107Z,1.40
2022-08-09T23:17:46.553Z,1.40
2022-08-09T23:20:13.220Z,2.10
2022-08-09T23:22:39.898Z,1.55
2022-08-09T23:25:07.069Z,1.50
2022-08-09T23:27:33.743Z,1.88
2022-08-09T23:30:00.392Z,4.50
2022-08-09T23:32:26.844Z,3.80
2022-08-09T23:34:53.356Z,3.40
2022-08-09T23:37:22.704Z,2.20
2022-08-09T23:39:51.920Z,2.53
2022-08-09T23:42:18.419Z,1.77
2022-08-09T23:44:44.978Z,1.40
2022-08-09T23:47:11.471Z,1.80
2022-08-09T23:49:37.904Z,1.50
2022-08-09T23:52:04.862Z,1.42
2022-08-09T23:54:31.336Z,1.60
2022-08-09T23:56:58.604Z,1.50
2022-08-09T23:59:25.594Z,1.20
